sensor_id;sensor_type;location;lat;lon;timestamp;P1;durP1;ratioP1;P2;durP2;ratioP2
43793;SDS011;29414;44.798;20.366;2023-05-18T00:00:53;4.46;;;3.58;;
43793;SDS011;29414;44.798;20.366;2023-05-18T00:04:54;3.90;;;3.42;;
43793;SDS011;29414;44.798;20.366;2023-05-18T00:08:54;4.63;;;4.13;;
43793;SDS011;29414;44.798;20.366;2023-05-18T00:12:55;7.00;;;4.08;;
43793;SDS011;29414;44.798;20.366;2023-05-18T00:16:55;6.45;;;4.32;;
43793;SDS011;29414;44.798;20.366;2023-05-18T00:20:55;5.25;;;4.07;;
43793;SDS011;29414;44.798;20.366;2023-05-18T00:24:59;6.80;;;4.53;;
43793;SDS011;29414;44.798;20.366;2023-05-18T00:28:59;5.43;;;4.93;;
43793;SDS011;29414;44.798;20.366;2023-05-18T00:33:00;5.15;;;3.72;;
43793;SDS011;29414;44.798;20.366;2023-05-18T00:37:00;5.55;;;3.80;;
43793;SDS011;29414;44.798;20.366;2023-05-18T00:41:00;3.90;;;3.55;;
43793;SDS011;29414;44.798;20.366;2023-05-18T00:45:01;8.73;;;4.13;;
43793;SDS011;29414;44.798;20.366;2023-05-18T00:49:01;6.25;;;4.10;;
43793;SDS011;29414;44.798;20.366;2023-05-18T00:53:01;5.80;;;3.45;;
43793;SDS011;29414;44.798;20.366;2023-05-18T00:57:02;4.95;;;4.15;;
43793;SDS011;29414;44.798;20.366;2023-05-18T01:01:03;4.30;;;3.90;;
43793;SDS011;29414;44.798;20.366;2023-05-18T01:05:05;4.40;;;4.00;;
43793;SDS011;29414;44.798;20.366;2023-05-18T01:09:06;4.50;;;4.07;;
43793;SDS011;29414;44.798;20.366;2023-05-18T01:13:12;4.15;;;3.85;;
43793;SDS011;29414;44.798;20.366;2023-05-18T01:25:46;4.75;;;3.90;;
43793;SDS011;29414;44.798;20.366;2023-05-18T01:29:47;5.65;;;3.05;;
43793;SDS011;29414;44.798;20.366;2023-05-18T01:33:48;4.55;;;3.10;;
43793;SDS011;29414;44.798;20.366;2023-05-18T01:37:48;8.82;;;3.83;;
43793;SDS011;29414;44.798;20.366;2023-05-18T01:41:55;4.16;;;3.60;;
43793;SDS011;29414;44.798;20.366;2023-05-18T01:46:00;3.53;;;3.22;;
43793;SDS011;29414;44.798;20.366;2023-05-18T01:50:05;3.25;;;2.67;;
43793;SDS011;29414;44.798;20.366;2023-05-18T01:54:09;3.10;;;2.90;;
43793;SDS011;29414;44.798;20.366;2023-05-18T01:58:13;3.08;;;2.88;;
43793;SDS011;29414;44.798;20.366;2023-05-18T02:02:13;3.30;;;3.10;;
43793;SDS011;29414;44.798;20.366;2023-05-18T02:06:14;3.72;;;3.42;;
43793;SDS011;29414;44.798;20.366;2023-05-18T02:10:14;4.08;;;3.72;;
43793;SDS011;29414;44.798;20.366;2023-05-18T02:14:15;3.75;;;3.40;;
43793;SDS011;29414;44.798;20.366;2023-05-18T02:18:15;4.43;;;3.47;;
43793;SDS011;29414;44.798;20.366;2023-05-18T02:22:15;4.38;;;3.60;;
43793;SDS011;29414;44.798;20.366;2023-05-18T02:26:15;2.95;;;2.67;;
43793;SDS011;29414;44.798;20.366;2023-05-18T02:30:16;2.90;;;2.70;;
43793;SDS011;29414;44.798;20.366;2023-05-18T02:34:16;3.88;;;3.20;;
43793;SDS011;29414;44.798;20.366;2023-05-18T02:38:21;4.45;;;3.70;;
43793;SDS011;29414;44.798;20.366;2023-05-18T02:42:21;3.55;;;3.25;;
43793;SDS011;29414;44.798;20.366;2023-05-18T02:46:21;3.95;;;3.45;;
43793;SDS011;29414;44.798;20.366;2023-05-18T02:50:22;3.10;;;2.80;;
43793;SDS011;29414;44.798;20.366;2023-05-18T02:54:22;3.56;;;2.82;;
43793;SDS011;29414;44.798;20.366;2023-05-18T02:58:22;3.00;;;2.70;;
43793;SDS011;29414;44.798;20.366;2023-05-18T03:02:24;4.78;;;2.67;;
43793;SDS011;29414;44.798;20.366;2023-05-18T03:06:26;4.05;;;2.20;;
43793;SDS011;29414;44.798;20.366;2023-05-18T03:10:30;4.50;;;2.78;;
43793;SDS011;29414;44.798;20.366;2023-05-18T03:14:30;3.47;;;2.60;;
43793;SDS011;29414;44.798;20.366;2023-05-18T03:18:31;4.55;;;2.92;;
43793;SDS011;29414;44.798;20.366;2023-05-18T03:22:31;3.47;;;2.50;;
43793;SDS011;29414;44.798;20.366;2023-05-18T03:26:31;2.70;;;2.50;;
43793;SDS011;29414;44.798;20.366;2023-05-18T03:30:32;4.47;;;3.00;;
43793;SDS011;29414;44.798;20.366;2023-05-18T03:34:32;3.92;;;2.72;;
43793;SDS011;29414;44.798;20.366;2023-05-18T03:38:36;2.92;;;2.45;;
43793;SDS011;29414;44.798;20.366;2023-05-18T03:42:36;4.00;;;2.70;;
43793;SDS011;29414;44.798;20.366;2023-05-18T03:46:37;12.48;;;2.78;;
43793;SDS011;29414;44.798;20.366;2023-05-18T03:50:38;3.98;;;2.68;;
43793;SDS011;29414;44.798;20.366;2023-05-18T03:54:38;3.85;;;2.90;;
43793;SDS011;29414;44.798;20.366;2023-05-18T03:58:41;4.13;;;2.80;;
43793;SDS011;29414;44.798;20.366;2023-05-18T04:02:43;2.47;;;2.28;;
43793;SDS011;29414;44.798;20.366;2023-05-18T04:06:43;3.10;;;2.67;;
43793;SDS011;29414;44.798;20.366;2023-05-18T04:10:45;2.73;;;2.53;;
43793;SDS011;29414;44.798;20.366;2023-05-18T04:14:46;7.20;;;2.03;;
43793;SDS011;29414;44.798;20.366;2023-05-18T04:18:48;4.20;;;2.13;;
43793;SDS011;29414;44.798;20.366;2023-05-18T04:22:48;2.20;;;1.88;;
43793;SDS011;29414;44.798;20.366;2023-05-18T04:26:49;2.17;;;1.88;;
43793;SDS011;29414;44.798;20.366;2023-05-18T04:30:49;3.67;;;2.50;;
43793;SDS011;29414;44.798;20.366;2023-05-18T04:34:50;2.33;;;2.13;;
43793;SDS011;29414;44.798;20.366;2023-05-18T04:38:51;4.44;;;2.84;;
43793;SDS011;29414;44.798;20.366;2023-05-18T04:42:51;3.27;;;2.43;;
43793;SDS011;29414;44.798;20.366;2023-05-18T04:46:52;3.50;;;3.20;;
43793;SDS011;29414;44.798;20.366;2023-05-18T04:50:52;2.90;;;1.87;;
43793;SDS011;29414;44.798;20.366;2023-05-18T04:54:55;2.35;;;2.00;;
43793;SDS011;29414;44.798;20.366;2023-05-18T04:58:55;1.48;;;1.38;;
43793;SDS011;29414;44.798;20.366;2023-05-18T05:02:58;1.75;;;1.65;;
43793;SDS011;29414;44.798;20.366;2023-05-18T05:06:58;2.03;;;1.70;;
43793;SDS011;29414;44.798;20.366;2023-05-18T05:10:59;3.76;;;1.66;;
43793;SDS011;29414;44.798;20.366;2023-05-18T05:14:59;1.63;;;1.50;;
43793;SDS011;29414;44.798;20.366;2023-05-18T05:18:59;2.83;;;2.53;;
43793;SDS011;29414;44.798;20.366;2023-05-18T05:23:00;2.93;;;2.23;;
43793;SDS011;29414;44.798;20.366;2023-05-18T05:27:00;4.83;;;1.70;;
43793;SDS011;29414;44.798;20.366;2023-05-18T05:31:01;1.87;;;1.67;;
43793;SDS011;29414;44.798;20.366;2023-05-18T05:35:01;2.60;;;2.13;;
43793;SDS011;29414;44.798;20.366;2023-05-18T05:39:02;4.87;;;3.60;;
43793;SDS011;29414;44.798;20.366;2023-05-18T05:43:03;2.63;;;2.43;;
43793;SDS011;29414;44.798;20.366;2023-05-18T05:47:03;3.75;;;2.13;;
43793;SDS011;29414;44.798;20.366;2023-05-18T05:51:04;5.13;;;2.00;;
43793;SDS011;29414;44.798;20.366;2023-05-18T05:55:04;2.80;;;2.60;;
43793;SDS011;29414;44.798;20.366;2023-05-18T05:59:04;3.43;;;2.27;;
43793;SDS011;29414;44.798;20.366;2023-05-18T06:03:05;2.80;;;2.33;;
43793;SDS011;29414;44.798;20.366;2023-05-18T06:07:05;2.88;;;2.10;;
43793;SDS011;29414;44.798;20.366;2023-05-18T06:11:05;2.78;;;1.83;;
43793;SDS011;29414;44.798;20.366;2023-05-18T06:15:06;1.83;;;1.60;;
43793;SDS011;29414;44.798;20.366;2023-05-18T06:19:06;3.43;;;2.10;;
43793;SDS011;29414;44.798;20.366;2023-05-18T06:23:06;2.38;;;2.08;;
43793;SDS011;29414;44.798;20.366;2023-05-18T06:27:07;3.00;;;2.67;;
43793;SDS011;29414;44.798;20.366;2023-05-18T06:31:07;3.40;;;2.80;;
43793;SDS011;29414;44.798;20.366;2023-05-18T06:35:07;4.67;;;2.87;;
43793;SDS011;29414;44.798;20.366;2023-05-18T06:39:08;2.60;;;2.40;;
43793;SDS011;29414;44.798;20.366;2023-05-18T06:43:08;3.57;;;2.80;;
43793;SDS011;29414;44.798;20.366;2023-05-18T06:47:09;5.10;;;4.50;;
43793;SDS011;29414;44.798;20.366;2023-05-18T06:51:09;2.55;;;2.08;;
43793;SDS011;29414;44.798;20.366;2023-05-18T06:55:09;5.32;;;2.38;;
43793;SDS011;29414;44.798;20.366;2023-05-18T06:59:10;2.75;;;2.03;;
43793;SDS011;29414;44.798;20.366;2023-05-18T07:03:10;6.77;;;2.37;;
43793;SDS011;29414;44.798;20.366;2023-05-18T07:07:10;2.53;;;2.33;;
43793;SDS011;29414;44.798;20.366;2023-05-18T07:11:11;3.22;;;2.83;;
43793;SDS011;29414;44.798;20.366;2023-05-18T07:15:11;3.22;;;2.90;;
43793;SDS011;29414;44.798;20.366;2023-05-18T07:19:12;3.58;;;3.28;;
43793;SDS011;29414;44.798;20.366;2023-05-18T07:23:12;3.22;;;2.92;;
43793;SDS011;29414;44.798;20.366;2023-05-18T07:27:13;3.45;;;2.60;;
43793;SDS011;29414;44.798;20.366;2023-05-18T07:31:13;1.73;;;1.63;;
43793;SDS011;29414;44.798;20.366;2023-05-18T07:35:15;4.10;;;2.60;;
43793;SDS011;29414;44.798;20.366;2023-05-18T07:39:16;3.65;;;2.67;;
43793;SDS011;29414;44.798;20.366;2023-05-18T07:43:18;2.45;;;1.90;;
43793;SDS011;29414;44.798;20.366;2023-05-18T07:47:19;3.80;;;2.58;;
43793;SDS011;29414;44.798;20.366;2023-05-18T07:51:20;1.88;;;1.77;;
43793;SDS011;29414;44.798;20.366;2023-05-18T07:55:23;1.85;;;1.65;;
43793;SDS011;29414;44.798;20.366;2023-05-18T07:59:24;1.33;;;1.23;;
43793;SDS011;29414;44.798;20.366;2023-05-18T08:03:24;1.80;;;1.70;;
43793;SDS011;29414;44.798;20.366;2023-05-18T08:07:28;2.47;;;1.83;;
43793;SDS011;29414;44.798;20.366;2023-05-18T08:11:29;1.45;;;1.35;;
43793;SDS011;29414;44.798;20.366;2023-05-18T08:15:29;3.13;;;1.85;;
43793;SDS011;29414;44.798;20.366;2023-05-18T08:19:29;2.17;;;1.60;;
43793;SDS011;29414;44.798;20.366;2023-05-18T08:23:30;1.67;;;1.55;;
43793;SDS011;29414;44.798;20.366;2023-05-18T08:27:30;1.90;;;1.00;;
43793;SDS011;29414;44.798;20.366;2023-05-18T08:31:30;2.08;;;1.50;;
43793;SDS011;29414;44.798;20.366;2023-05-18T08:35:30;2.83;;;1.80;;
43793;SDS011;29414;44.798;20.366;2023-05-18T08:39:31;2.47;;;2.05;;
43793;SDS011;29414;44.798;20.366;2023-05-18T08:43:32;1.63;;;1.52;;
43793;SDS011;29414;44.798;20.366;2023-05-18T08:47:35;1.88;;;1.77;;
43793;SDS011;29414;44.798;20.366;2023-05-18T08:51:36;1.85;;;1.40;;
43793;SDS011;29414;44.798;20.366;2023-05-18T08:55:37;2.53;;;2.33;;
43793;SDS011;29414;44.798;20.366;2023-05-18T08:59:46;2.05;;;1.52;;
43793;SDS011;29414;44.798;20.366;2023-05-18T09:03:47;1.63;;;1.52;;
43793;SDS011;29414;44.798;20.366;2023-05-18T09:07:49;1.67;;;1.58;;
43793;SDS011;29414;44.798;20.366;2023-05-18T09:11:50;2.90;;;1.40;;
43793;SDS011;29414;44.798;20.366;2023-05-18T09:15:50;1.92;;;1.65;;
43793;SDS011;29414;44.798;20.366;2023-05-18T09:19:51;2.28;;;2.08;;
43793;SDS011;29414;44.798;20.366;2023-05-18T09:23:51;2.33;;;1.67;;
43793;SDS011;29414;44.798;20.366;2023-05-18T09:27:51;2.90;;;1.85;;
43793;SDS011;29414;44.798;20.366;2023-05-18T09:31:52;2.28;;;1.40;;
43793;SDS011;29414;44.798;20.366;2023-05-18T09:35:53;2.92;;;2.72;;
43793;SDS011;29414;44.798;20.366;2023-05-18T09:40:00;2.55;;;2.28;;
43793;SDS011;29414;44.798;20.366;2023-05-18T09:44:01;1.67;;;1.58;;
43793;SDS011;29414;44.798;20.366;2023-05-18T09:48:06;1.17;;;1.10;;
43793;SDS011;29414;44.798;20.366;2023-05-18T09:52:07;1.52;;;1.08;;
43793;SDS011;29414;44.798;20.366;2023-05-18T09:56:08;1.30;;;1.20;;
43793;SDS011;29414;44.798;20.366;2023-05-18T10:00:11;2.08;;;1.98;;
43793;SDS011;29414;44.798;20.366;2023-05-18T10:04:12;1.98;;;1.83;;
43793;SDS011;29414;44.798;20.366;2023-05-18T10:08:12;1.55;;;1.45;;
43793;SDS011;29414;44.798;20.366;2023-05-18T10:12:14;2.03;;;1.92;;
43793;SDS011;29414;44.798;20.366;2023-05-18T10:16:15;2.25;;;2.10;;
43793;SDS011;29414;44.798;20.366;2023-05-18T10:20:19;1.40;;;1.30;;
43793;SDS011;29414;44.798;20.366;2023-05-18T10:24:20;1.92;;;1.83;;
43793;SDS011;29414;44.798;20.366;2023-05-18T10:28:21;2.28;;;2.05;;
43793;SDS011;29414;44.798;20.366;2023-05-18T10:32:26;2.92;;;2.65;;
43793;SDS011;29414;44.798;20.366;2023-05-18T10:36:28;2.00;;;1.90;;
43793;SDS011;29414;44.798;20.366;2023-05-18T10:40:29;2.67;;;2.47;;
43793;SDS011;29414;44.798;20.366;2023-05-18T10:44:29;2.05;;;1.95;;
43793;SDS011;29414;44.798;20.366;2023-05-18T10:48:29;2.50;;;1.88;;
43793;SDS011;29414;44.798;20.366;2023-05-18T10:52:30;2.30;;;2.20;;
43793;SDS011;29414;44.798;20.366;2023-05-18T10:56:31;3.22;;;2.92;;
43793;SDS011;29414;44.798;20.366;2023-05-18T11:00:33;4.30;;;3.45;;
43793;SDS011;29414;44.798;20.366;2023-05-18T11:04:34;3.42;;;2.92;;
43793;SDS011;29414;44.798;20.366;2023-05-18T11:08:41;2.65;;;2.45;;
43793;SDS011;29414;44.798;20.366;2023-05-18T11:12:42;6.03;;;3.27;;
43793;SDS011;29414;44.798;20.366;2023-05-18T11:16:43;1.42;;;1.33;;
43793;SDS011;29414;44.798;20.366;2023-05-18T11:20:44;3.67;;;2.17;;
43793;SDS011;29414;44.798;20.366;2023-05-18T11:24:45;2.28;;;2.08;;
43793;SDS011;29414;44.798;20.366;2023-05-18T11:28:46;2.88;;;2.45;;
43793;SDS011;29414;44.798;20.366;2023-05-18T11:32:51;4.18;;;2.60;;
43793;SDS011;29414;44.798;20.366;2023-05-18T11:36:51;4.50;;;2.40;;
43793;SDS011;29414;44.798;20.366;2023-05-18T11:40:55;2.47;;;2.25;;
43793;SDS011;29414;44.798;20.366;2023-05-18T11:44:57;3.42;;;3.13;;
43793;SDS011;29414;44.798;20.366;2023-05-18T11:49:08;3.35;;;2.55;;
43793;SDS011;29414;44.798;20.366;2023-05-18T11:53:08;2.97;;;2.15;;
43793;SDS011;29414;44.798;20.366;2023-05-18T11:57:14;4.18;;;2.25;;
43793;SDS011;29414;44.798;20.366;2023-05-18T12:01:15;3.17;;;2.53;;
43793;SDS011;29414;44.798;20.366;2023-05-18T12:05:15;2.03;;;1.75;;
43793;SDS011;29414;44.798;20.366;2023-05-18T12:09:16;2.15;;;1.95;;
43793;SDS011;29414;44.798;20.366;2023-05-18T12:13:16;2.38;;;2.05;;
43793;SDS011;29414;44.798;20.366;2023-05-18T12:17:16;2.45;;;1.70;;
43793;SDS011;29414;44.798;20.366;2023-05-18T12:21:20;2.78;;;2.55;;
43793;SDS011;29414;44.798;20.366;2023-05-18T12:25:21;2.25;;;1.77;;
43793;SDS011;29414;44.798;20.366;2023-05-18T12:29:22;2.55;;;1.92;;
43793;SDS011;29414;44.798;20.366;2023-05-18T12:33:22;2.55;;;2.35;;
43793;SDS011;29414;44.798;20.366;2023-05-18T12:37:23;4.53;;;2.33;;
43793;SDS011;29414;44.798;20.366;2023-05-18T12:41:24;2.45;;;2.25;;
43793;SDS011;29414;44.798;20.366;2023-05-18T12:45:26;3.72;;;2.45;;
43793;SDS011;29414;44.798;20.366;2023-05-18T12:49:27;3.83;;;2.10;;
43793;SDS011;29414;44.798;20.366;2023-05-18T12:53:38;4.38;;;2.10;;
43793;SDS011;29414;44.798;20.366;2023-05-18T12:57:39;4.53;;;2.78;;
43793;SDS011;29414;44.798;20.366;2023-05-18T13:01:40;5.72;;;3.53;;
43793;SDS011;29414;44.798;20.366;2023-05-18T13:05:43;6.95;;;4.38;;
43793;SDS011;29414;44.798;20.366;2023-05-18T13:09:44;4.60;;;3.75;;
43793;SDS011;29414;44.798;20.366;2023-05-18T13:13:58;3.53;;;3.22;;
43793;SDS011;29414;44.798;20.366;2023-05-18T13:18:05;5.25;;;2.72;;
43793;SDS011;29414;44.798;20.366;2023-05-18T13:22:08;2.38;;;2.17;;
43793;SDS011;29414;44.798;20.366;2023-05-18T13:26:09;2.80;;;2.03;;
43793;SDS011;29414;44.798;20.366;2023-05-18T13:30:09;5.28;;;2.88;;
43793;SDS011;29414;44.798;20.366;2023-05-18T13:34:09;2.80;;;2.30;;
43793;SDS011;29414;44.798;20.366;2023-05-18T13:38:11;2.80;;;2.17;;
43793;SDS011;29414;44.798;20.366;2023-05-18T13:42:12;4.05;;;2.38;;
43793;SDS011;29414;44.798;20.366;2023-05-18T13:46:12;2.78;;;2.58;;
43793;SDS011;29414;44.798;20.366;2023-05-18T13:50:12;3.60;;;3.30;;
43793;SDS011;29414;44.798;20.366;2023-05-18T13:54:13;3.88;;;2.83;;
43793;SDS011;29414;44.798;20.366;2023-05-18T13:58:13;3.32;;;3.02;;
43793;SDS011;29414;44.798;20.366;2023-05-18T14:02:13;2.55;;;2.20;;
43793;SDS011;29414;44.798;20.366;2023-05-18T14:06:14;2.55;;;2.38;;
43793;SDS011;29414;44.798;20.366;2023-05-18T14:10:14;3.20;;;2.47;;
43793;SDS011;29414;44.798;20.366;2023-05-18T14:14:14;4.18;;;2.80;;
43793;SDS011;29414;44.798;20.366;2023-05-18T14:18:15;5.25;;;3.55;;
43793;SDS011;29414;44.798;20.366;2023-05-18T14:22:15;3.10;;;2.80;;
43793;SDS011;29414;44.798;20.366;2023-05-18T14:26:16;4.57;;;3.10;;
43793;SDS011;29414;44.798;20.366;2023-05-18T14:30:17;3.03;;;2.65;;
43793;SDS011;29414;44.798;20.366;2023-05-18T14:34:17;1.90;;;1.75;;
43793;SDS011;29414;44.798;20.366;2023-05-18T14:38:17;3.33;;;2.20;;
43793;SDS011;29414;44.798;20.366;2023-05-18T14:42:18;2.83;;;2.17;;
43793;SDS011;29414;44.798;20.366;2023-05-18T14:46:18;4.70;;;2.50;;
43793;SDS011;29414;44.798;20.366;2023-05-18T14:50:19;3.75;;;2.33;;
43793;SDS011;29414;44.798;20.366;2023-05-18T14:54:19;3.40;;;3.10;;
43793;SDS011;29414;44.798;20.366;2023-05-18T14:58:21;2.88;;;2.15;;
43793;SDS011;29414;44.798;20.366;2023-05-18T15:02:21;5.97;;;3.78;;
43793;SDS011;29414;44.798;20.366;2023-05-18T15:06:21;4.93;;;3.30;;
43793;SDS011;29414;44.798;20.366;2023-05-18T15:10:23;3.90;;;2.83;;
43793;SDS011;29414;44.798;20.366;2023-05-18T15:14:23;3.38;;;3.08;;
43793;SDS011;29414;44.798;20.366;2023-05-18T15:18:24;2.60;;;2.40;;
43793;SDS011;29414;44.798;20.366;2023-05-18T15:22:24;4.82;;;3.88;;
43793;SDS011;29414;44.798;20.366;2023-05-18T15:26:25;4.35;;;2.13;;
43793;SDS011;29414;44.798;20.366;2023-05-18T15:30:25;2.97;;;2.10;;
43793;SDS011;29414;44.798;20.366;2023-05-18T15:34:28;3.35;;;1.65;;
43793;SDS011;29414;44.798;20.366;2023-05-18T15:38:32;4.30;;;2.00;;
43793;SDS011;29414;44.798;20.366;2023-05-18T15:42:32;3.67;;;2.97;;
43793;SDS011;29414;44.798;20.366;2023-05-18T15:46:35;3.38;;;3.08;;
43793;SDS011;29414;44.798;20.366;2023-05-18T15:50:36;2.83;;;2.63;;
43793;SDS011;29414;44.798;20.366;2023-05-18T15:54:36;3.50;;;3.20;;
43793;SDS011;29414;44.798;20.366;2023-05-18T15:58:36;3.40;;;3.10;;
43793;SDS011;29414;44.798;20.366;2023-05-18T16:02:37;3.80;;;3.10;;
43793;SDS011;29414;44.798;20.366;2023-05-18T16:06:37;5.22;;;3.33;;
43793;SDS011;29414;44.798;20.366;2023-05-18T16:10:37;3.85;;;2.65;;
43793;SDS011;29414;44.798;20.366;2023-05-18T16:14:38;2.90;;;2.70;;
43793;SDS011;29414;44.798;20.366;2023-05-18T16:18:38;2.40;;;2.00;;
43793;SDS011;29414;44.798;20.366;2023-05-18T16:22:38;3.63;;;2.25;;
43793;SDS011;29414;44.798;20.366;2023-05-18T16:26:38;3.22;;;2.30;;
43793;SDS011;29414;44.798;20.366;2023-05-18T16:30:39;3.58;;;3.28;;
43793;SDS011;29414;44.798;20.366;2023-05-18T16:34:39;2.10;;;2.00;;
43793;SDS011;29414;44.798;20.366;2023-05-18T16:38:43;5.85;;;2.33;;
43793;SDS011;29414;44.798;20.366;2023-05-18T16:42:43;2.97;;;2.55;;
43793;SDS011;29414;44.798;20.366;2023-05-18T16:46:46;4.63;;;3.17;;
43793;SDS011;29414;44.798;20.366;2023-05-18T16:50:46;4.10;;;3.28;;
43793;SDS011;29414;44.798;20.366;2023-05-18T16:54:46;3.45;;;2.95;;
43793;SDS011;29414;44.798;20.366;2023-05-18T16:58:47;4.05;;;3.08;;
43793;SDS011;29414;44.798;20.366;2023-05-18T17:02:51;6.75;;;5.28;;
43793;SDS011;29414;44.798;20.366;2023-05-18T17:06:51;5.80;;;3.95;;
43793;SDS011;29414;44.798;20.366;2023-05-18T17:10:51;3.33;;;3.03;;
43793;SDS011;29414;44.798;20.366;2023-05-18T17:14:52;2.67;;;2.45;;
43793;SDS011;29414;44.798;20.366;2023-05-18T17:18:52;4.53;;;4.22;;
43793;SDS011;29414;44.798;20.366;2023-05-18T17:22:53;4.15;;;3.75;;
43793;SDS011;29414;44.798;20.366;2023-05-18T17:26:54;5.88;;;4.70;;
43793;SDS011;29414;44.798;20.366;2023-05-18T17:30:54;7.65;;;4.43;;
43793;SDS011;29414;44.798;20.366;2023-05-18T17:34:55;4.35;;;2.97;;
43793;SDS011;29414;44.798;20.366;2023-05-18T17:38:56;4.85;;;2.20;;
43793;SDS011;29414;44.798;20.366;2023-05-18T17:42:56;3.60;;;2.10;;
43793;SDS011;29414;44.798;20.366;2023-05-18T17:46:57;3.92;;;3.00;;
43793;SDS011;29414;44.798;20.366;2023-05-18T17:50:57;4.97;;;4.25;;
43793;SDS011;29414;44.798;20.366;2023-05-18T17:54:59;4.88;;;4.47;;
43793;SDS011;29414;44.798;20.366;2023-05-18T17:58:59;7.18;;;6.13;;
43793;SDS011;29414;44.798;20.366;2023-05-18T18:03:00;6.43;;;5.90;;
43793;SDS011;29414;44.798;20.366;2023-05-18T18:07:00;12.00;;;11.00;;
43793;SDS011;29414;44.798;20.366;2023-05-18T18:11:00;9.98;;;9.15;;
43793;SDS011;29414;44.798;20.366;2023-05-18T18:15:01;7.22;;;5.60;;
43793;SDS011;29414;44.798;20.366;2023-05-18T18:19:01;10.32;;;6.28;;
43793;SDS011;29414;44.798;20.366;2023-05-18T18:23:02;7.60;;;5.18;;
43793;SDS011;29414;44.798;20.366;2023-05-18T18:27:03;10.25;;;4.78;;
43793;SDS011;29414;44.798;20.366;2023-05-18T18:31:03;5.10;;;4.50;;
43793;SDS011;29414;44.798;20.366;2023-05-18T18:35:04;6.50;;;4.97;;
43793;SDS011;29414;44.798;20.366;2023-05-18T18:39:04;5.25;;;4.75;;
43793;SDS011;29414;44.798;20.366;2023-05-18T18:43:05;5.97;;;5.28;;
43793;SDS011;29414;44.798;20.366;2023-05-18T18:47:06;7.47;;;5.07;;
43793;SDS011;29414;44.798;20.366;2023-05-18T18:51:06;6.68;;;4.97;;
43793;SDS011;29414;44.798;20.366;2023-05-18T18:55:06;6.07;;;5.57;;
43793;SDS011;29414;44.798;20.366;2023-05-18T18:59:06;6.75;;;5.85;;
43793;SDS011;29414;44.798;20.366;2023-05-18T19:03:07;10.30;;;6.22;;
43793;SDS011;29414;44.798;20.366;2023-05-18T19:07:08;9.10;;;5.53;;
43793;SDS011;29414;44.798;20.366;2023-05-18T19:11:09;6.47;;;5.75;;
43793;SDS011;29414;44.798;20.366;2023-05-18T19:15:10;7.57;;;6.72;;
43793;SDS011;29414;44.798;20.366;2023-05-18T19:19:12;6.45;;;5.85;;
43793;SDS011;29414;44.798;20.366;2023-05-18T19:23:12;6.25;;;5.65;;
43793;SDS011;29414;44.798;20.366;2023-05-18T19:27:12;6.68;;;6.08;;
43793;SDS011;29414;44.798;20.366;2023-05-18T19:31:12;5.70;;;5.10;;
43793;SDS011;29414;44.798;20.366;2023-05-18T19:35:13;7.66;;;5.84;;
43793;SDS011;29414;44.798;20.366;2023-05-18T19:39:13;7.97;;;5.45;;
43793;SDS011;29414;44.798;20.366;2023-05-18T19:43:14;5.25;;;4.75;;
43793;SDS011;29414;44.798;20.366;2023-05-18T19:47:17;7.05;;;5.43;;
43793;SDS011;29414;44.798;20.366;2023-05-18T19:51:17;7.10;;;5.97;;
43793;SDS011;29414;44.798;20.366;2023-05-18T19:55:17;5.85;;;5.18;;
43793;SDS011;29414;44.798;20.366;2023-05-18T19:59:19;5.45;;;4.97;;
43793;SDS011;29414;44.798;20.366;2023-05-18T20:03:20;7.93;;;4.80;;
43793;SDS011;29414;44.798;20.366;2023-05-18T20:07:20;9.52;;;6.30;;
43793;SDS011;29414;44.798;20.366;2023-05-18T20:11:21;11.20;;;6.10;;
43793;SDS011;29414;44.798;20.366;2023-05-18T20:15:21;5.65;;;5.15;;
43793;SDS011;29414;44.798;20.366;2023-05-18T20:19:22;6.93;;;6.25;;
43793;SDS011;29414;44.798;20.366;2023-05-18T20:23:22;5.78;;;5.28;;
43793;SDS011;29414;44.798;20.366;2023-05-18T20:27:22;5.87;;;5.37;;
43793;SDS011;29414;44.798;20.366;2023-05-18T20:31:22;6.74;;;5.86;;
43793;SDS011;29414;44.798;20.366;2023-05-18T20:35:23;7.15;;;4.93;;
43793;SDS011;29414;44.798;20.366;2023-05-18T20:39:28;7.43;;;5.85;;
43793;SDS011;29414;44.798;20.366;2023-05-18T20:43:28;6.97;;;5.68;;
43793;SDS011;29414;44.798;20.366;2023-05-18T20:47:30;9.23;;;5.80;;
43793;SDS011;29414;44.798;20.366;2023-05-18T20:51:31;6.85;;;5.82;;
43793;SDS011;29414;44.798;20.366;2023-05-18T20:55:31;6.00;;;5.28;;
43793;SDS011;29414;44.798;20.366;2023-05-18T20:59:32;7.68;;;6.65;;
43793;SDS011;29414;44.798;20.366;2023-05-18T21:03:32;8.48;;;6.25;;
43793;SDS011;29414;44.798;20.366;2023-05-18T21:07:37;7.13;;;6.40;;
43793;SDS011;29414;44.798;20.366;2023-05-18T21:11:39;7.97;;;6.88;;
43793;SDS011;29414;44.798;20.366;2023-05-18T21:15:39;7.13;;;6.50;;
43793;SDS011;29414;44.798;20.366;2023-05-18T21:19:40;8.10;;;6.50;;
43793;SDS011;29414;44.798;20.366;2023-05-18T21:23:40;7.70;;;6.28;;
43793;SDS011;29414;44.798;20.366;2023-05-18T21:27:40;6.98;;;6.34;;
43793;SDS011;29414;44.798;20.366;2023-05-18T21:31:41;7.10;;;6.30;;
43793;SDS011;29414;44.798;20.366;2023-05-18T21:35:41;7.18;;;6.50;;
43793;SDS011;29414;44.798;20.366;2023-05-18T21:39:41;7.57;;;6.53;;
43793;SDS011;29414;44.798;20.366;2023-05-18T21:43:42;6.72;;;6.00;;
43793;SDS011;29414;44.798;20.366;2023-05-18T21:47:43;7.44;;;6.38;;
43793;SDS011;29414;44.798;20.366;2023-05-18T21:51:43;9.45;;;6.93;;
43793;SDS011;29414;44.798;20.366;2023-05-18T21:55:43;9.25;;;7.40;;
43793;SDS011;29414;44.798;20.366;2023-05-18T21:59:44;7.40;;;6.70;;
43793;SDS011;29414;44.798;20.366;2023-05-18T22:03:44;7.55;;;6.95;;
43793;SDS011;29414;44.798;20.366;2023-05-18T22:07:44;8.67;;;7.47;;
43793;SDS011;29414;44.798;20.366;2023-05-18T22:11:45;8.23;;;7.22;;
43793;SDS011;29414;44.798;20.366;2023-05-18T22:15:45;8.82;;;7.95;;
43793;SDS011;29414;44.798;20.366;2023-05-18T22:19:45;8.45;;;7.53;;
43793;SDS011;29414;44.798;20.366;2023-05-18T22:23:45;9.66;;;7.66;;
43793;SDS011;29414;44.798;20.366;2023-05-18T22:27:46;8.48;;;7.43;;
43793;SDS011;29414;44.798;20.366;2023-05-18T22:31:47;10.18;;;7.95;;
43793;SDS011;29414;44.798;20.366;2023-05-18T22:35:47;8.35;;;6.65;;
43793;SDS011;29414;44.798;20.366;2023-05-18T22:39:47;7.75;;;6.95;;
43793;SDS011;29414;44.798;20.366;2023-05-18T22:43:47;8.07;;;7.22;;
43793;SDS011;29414;44.798;20.366;2023-05-18T22:47:48;7.95;;;7.25;;
43793;SDS011;29414;44.798;20.366;2023-05-18T22:51:48;8.27;;;7.40;;
43793;SDS011;29414;44.798;20.366;2023-05-18T22:55:48;11.27;;;8.38;;
43793;SDS011;29414;44.798;20.366;2023-05-18T22:59:49;16.98;;;7.70;;
43793;SDS011;29414;44.798;20.366;2023-05-18T23:03:49;11.68;;;9.90;;
43793;SDS011;29414;44.798;20.366;2023-05-18T23:07:50;11.57;;;10.00;;
43793;SDS011;29414;44.798;20.366;2023-05-18T23:11:51;10.60;;;9.23;;
43793;SDS011;29414;44.798;20.366;2023-05-18T23:15:51;10.43;;;9.43;;
43793;SDS011;29414;44.798;20.366;2023-05-18T23:19:59;10.77;;;9.30;;
43793;SDS011;29414;44.798;20.366;2023-05-18T23:28:01;9.93;;;8.88;;
43793;SDS011;29414;44.798;20.366;2023-05-18T23:32:02;12.25;;;9.88;;
43793;SDS011;29414;44.798;20.366;2023-05-18T23:36:02;11.55;;;9.18;;
43793;SDS011;29414;44.798;20.366;2023-05-18T23:40:03;11.60;;;10.40;;
43793;SDS011;29414;44.798;20.366;2023-05-18T23:44:04;11.48;;;10.38;;
43793;SDS011;29414;44.798;20.366;2023-05-18T23:48:05;10.73;;;9.43;;
43793;SDS011;29414;44.798;20.366;2023-05-18T23:52:09;12.48;;;10.65;;
43793;SDS011;29414;44.798;20.366;2023-05-18T23:56:09;12.17;;;10.97;;
